aviador You're here:

KCKM Decoded Metar

in
Report Time2017-11-24 09:15:00
UTC Time2017-11-24 09:17:06
Flight Rules vfr VFR
WindCalm
Visibility9999 m
Phenomena:N/A
Clouds:N/A
Expected CloudBase > 800 ft AGL from Temp-Dew spread
CeilingNone
Temp02°C
Dew Point00°C (87% RH)
AAT0.0°C
QNH1017 hPa
Raw Report
KCKM 240915Z AUTO 00000KT 10SM 02/M00 A3004 RMK A01=

Extra information for KCKM:More info

Social comments